createdAt,value
2018-11-22T00:07:02.111Z,389.10
2018-11-22T00:17:20.201Z,549.10
2018-11-22T00:27:38.121Z,320.20
2018-11-22T00:37:56.213Z,429.70
2018-11-22T00:48:14.128Z,286.27
2018-11-22T00:58:32.398Z,270.67
2018-11-22T01:08:50.652Z,177.20
2018-11-22T01:19:08.986Z,199.53
2018-11-22T01:29:27.402Z,252.80
2018-11-22T01:39:45.477Z,226.00
2018-11-22T01:50:03.192Z,192.43
2018-11-22T02:00:23.732Z,214.90
2018-11-22T02:10:41.561Z,212.00
2018-11-22T02:20:59.617Z,191.77
2018-11-22T02:31:18.318Z,182.37
2018-11-22T02:41:37.055Z,165.53
2018-11-22T02:51:55.997Z,132.23
2018-11-22T03:02:14.451Z,140.83
2018-11-22T03:12:32.608Z,132.33
2018-11-22T03:22:50.806Z,129.57
2018-11-22T03:33:08.979Z,119.00
2018-11-22T03:43:27.074Z,126.23
2018-11-22T03:53:45.202Z,148.70
2018-11-22T04:04:03.606Z,105.17
2018-11-22T04:14:22.082Z,123.33
2018-11-22T04:24:40.097Z,124.30
2018-11-22T04:34:57.988Z,133.47
2018-11-22T04:45:16.215Z,125.70
2018-11-22T04:55:34.342Z,95.63
2018-11-22T05:05:52.447Z,90.67
2018-11-22T05:16:10.528Z,105.37
2018-11-22T05:26:28.613Z,96.23
2018-11-22T05:36:46.836Z,92.33
2018-11-22T05:47:05.860Z,69.33
2018-11-22T05:57:26.031Z,67.03
2018-11-22T06:07:43.895Z,76.07
2018-11-22T06:18:02.473Z,91.97
2018-11-22T06:28:20.746Z,97.67
2018-11-22T06:38:38.819Z,95.87
2018-11-22T06:48:56.896Z,137.50
2018-11-22T06:59:14.963Z,103.50
2018-11-22T07:09:33.274Z,105.40
2018-11-22T07:19:51.311Z,113.47
2018-11-22T07:30:11.767Z,117.20
2018-11-22T07:40:31.101Z,123.83
2018-11-22T07:50:49.135Z,121.07
2018-11-22T08:01:07.512Z,110.50
2018-11-22T08:11:25.567Z,90.37
2018-11-22T08:21:43.722Z,90.57
2018-11-22T08:32:01.680Z,77.07
2018-11-22T08:42:20.159Z,71.10
2018-11-22T08:52:38.224Z,69.73
2018-11-22T09:02:56.486Z,67.83
2018-11-22T09:13:14.210Z,68.70
2018-11-22T09:23:35.493Z,60.27
2018-11-22T09:33:50.293Z,60.23
2018-11-22T09:44:09.666Z,59.17
2018-11-22T09:54:27.760Z,60.53
2018-11-22T10:04:45.630Z,69.30
2018-11-22T10:15:03.667Z,75.80
2018-11-22T10:25:21.750Z,80.43
2018-11-22T10:35:40.047Z,64.37
2018-11-22T10:45:58.112Z,60.90
2018-11-22T10:56:16.132Z,54.93
2018-11-22T11:06:51.796Z,82.93
2018-11-22T11:17:09.557Z,83.13
2018-11-22T11:27:27.835Z,70.73
2018-11-22T11:37:45.851Z,89.67
2018-11-22T11:48:03.691Z,84.43
2018-11-22T11:58:21.625Z,87.17
2018-11-22T12:08:39.764Z,88.37
2018-11-22T12:18:58.225Z,97.33
2018-11-22T12:29:16.246Z,87.97
2018-11-22T12:39:34.207Z,89.73
2018-11-22T12:49:52.321Z,102.00
2018-11-22T13:00:15.044Z,87.27
2018-11-22T13:10:32.811Z,87.67
2018-11-22T13:20:50.820Z,111.63
2018-11-22T13:31:09.108Z,103.00
2018-11-22T13:41:27.241Z,101.60
2018-11-22T13:51:45.132Z,123.83
2018-11-22T14:02:03.221Z,103.80
2018-11-22T14:12:21.487Z,147.83
2018-11-22T14:22:39.396Z,115.90
2018-11-22T14:32:57.351Z,141.07
2018-11-22T14:43:15.619Z,128.13
2018-11-22T14:53:33.651Z,125.40
2018-11-22T15:03:52.600Z,167.43
2018-11-22T15:14:10.314Z,151.53
2018-11-22T15:24:28.589Z,143.70
2018-11-22T15:34:47.218Z,174.57
2018-11-22T15:45:04.947Z,151.77
2018-11-22T15:55:23.433Z,168.80
2018-11-22T16:05:41.154Z,157.43
2018-11-22T16:15:59.212Z,177.90
2018-11-22T16:26:16.946Z,195.17
2018-11-22T16:36:35.501Z,193.60
2018-11-22T16:46:54.633Z,179.30
2018-11-22T16:57:12.668Z,296.97
2018-11-22T17:07:30.794Z,185.17
2018-11-22T17:17:48.954Z,158.57
2018-11-22T17:28:07.973Z,148.07
2018-11-22T17:38:25.935Z,169.63
2018-11-22T17:48:44.160Z,154.77
2018-11-22T17:59:02.642Z,146.80
2018-11-22T18:09:20.683Z,134.27
2018-11-22T18:19:39.154Z,146.00
2018-11-22T18:29:57.169Z,180.17
2018-11-22T18:40:17.130Z,166.53
2018-11-22T18:50:35.950Z,178.70
2018-11-22T19:00:53.654Z,156.40
2018-11-22T19:11:12.655Z,184.97
2018-11-22T19:21:30.352Z,325.23
2018-11-22T19:31:48.078Z,197.77
2018-11-22T19:42:06.453Z,153.10
2018-11-22T19:52:24.440Z,102.43
2018-11-22T20:02:43.269Z,177.97
2018-11-22T20:13:01.415Z,207.00
2018-11-22T20:23:21.918Z,153.00
2018-11-22T20:33:37.856Z,98.40
2018-11-22T20:43:55.891Z,133.57
2018-11-22T20:54:14.086Z,100.53
2018-11-22T21:04:32.443Z,92.33
2018-11-22T21:14:50.642Z,77.87
2018-11-22T21:25:11.026Z,90.17
2018-11-22T21:35:29.017Z,71.87
2018-11-22T21:45:46.766Z,73.23
2018-11-22T21:56:04.690Z,91.10
2018-11-22T22:06:23.111Z,62.73
2018-11-22T22:16:41.631Z,67.53
2018-11-22T22:26:59.855Z,49.70
2018-11-22T22:37:17.628Z,46.83
2018-11-22T22:47:36.876Z,54.53
2018-11-22T22:57:54.917Z,54.03
2018-11-22T23:08:12.849Z,43.80
2018-11-22T23:18:30.822Z,47.47
2018-11-22T23:28:49.206Z,46.10
2018-11-22T23:39:10.271Z,50.80
2018-11-22T23:49:28.643Z,42.17
2018-11-22T23:59:46.371Z,40.73
